Accueil
METAR-TAF:

METAR-TAF

Aéroports :

Aéroport de Nîmes–Alès–Camargue–Cévennes, Garons

Nîmes, France

latitude: 43-45N, longitude: 004-25E, altitude: 94 m

Observation

Le bulletin a été fait il y a 32 minutes, à 19:30 UTC
Vent 3 kt de nord-est
Température 17°C
Humidité 82%
Pression 1019 hPa
Visibilité 10 km ou plus
pas de nuages en-dessous de 1500 mètres et pas de cumulonimbus.

METAR: LFTW 191930Z AUTO 04003KT CAVOK 17/14 Q1019

Heure: 22:02 (20:02 UTC)

Prévision

Le bulletin a été fait il y a 6 heures et 2 minutes, à 14:00 UTC
Prévision valable du 19 à 15 UTC au 20 à 15 UTC
Vent 10 kt de nord/nord-est
Visibilité 10 km ou plus
pas de nuages en-dessous de 1500 mètres et pas de cumulonimbus.

TAF: LFTW 191400Z 1915/2015 02010KT CAVOK

Observations et prévisions météorologiques de plus de 4000 aéroports (messages METAR et TAF).

Les stations disponibles sont représentées par des disques jaunes et rouges sur la carte.

Passer la souris dessus pour voir le nom de la station.

Cliquer dessus pour voir les observations et prévisions météorologiques.

Pour changer de carte: cliquez sur les boutons verts avec une croix noire pour zoomer, sur le bouton vert avec un tiret pour effectuer un zoom arrière, ou sur les flèches vertes pour les cartes adjacentes.


METAR-TAF: